createdAt,value
2023-04-16T00:02:23.150Z,7.00
2023-04-16T00:04:55.343Z,8.63
2023-04-16T00:07:27.315Z,5.87
2023-04-16T00:09:59.668Z,5.50
2023-04-16T00:12:31.635Z,6.30
2023-04-16T00:15:03.960Z,5.97
2023-04-16T00:17:36.058Z,7.13
2023-04-16T00:20:09.322Z,6.63
2023-04-16T00:22:41.272Z,8.93
2023-04-16T00:25:14.240Z,6.67
2023-04-16T00:27:46.227Z,5.93
2023-04-16T00:30:18.265Z,8.03
2023-04-16T00:32:50.290Z,9.00
2023-04-16T00:35:22.204Z,9.93
2023-04-16T00:37:54.234Z,8.27
2023-04-16T00:40:31.422Z,6.83
2023-04-16T00:43:03.405Z,7.17
2023-04-16T00:45:36.446Z,7.77
2023-04-16T00:48:10.651Z,6.37
2023-04-16T00:50:42.760Z,8.43
2023-04-16T00:53:16.189Z,6.30
2023-04-16T00:55:48.115Z,8.27
2023-04-16T00:58:20.417Z,8.87
2023-04-16T01:00:52.360Z,8.13
2023-04-16T01:03:32.452Z,6.47
2023-04-16T01:06:05.280Z,8.60
2023-04-16T01:08:37.783Z,7.67
2023-04-16T01:11:11.327Z,9.90
2023-04-16T01:13:43.349Z,8.13
2023-04-16T01:16:15.349Z,14.37
2023-04-16T01:18:47.316Z,8.20
2023-04-16T01:21:19.329Z,7.67
2023-04-16T01:23:51.311Z,7.13
2023-04-16T01:26:23.267Z,6.67
2023-04-16T01:28:55.394Z,8.90
2023-04-16T01:31:27.543Z,8.37
2023-04-16T01:33:59.535Z,7.03
2023-04-16T01:36:31.491Z,8.90
2023-04-16T01:39:04.367Z,8.20
2023-04-16T01:41:36.472Z,8.20
2023-04-16T01:44:08.430Z,9.17
2023-04-16T01:46:40.679Z,9.93
2023-04-16T01:49:12.687Z,7.93
2023-04-16T01:51:44.686Z,6.93
2023-04-16T01:54:16.681Z,9.90
2023-04-16T01:56:48.663Z,7.20
2023-04-16T01:59:20.724Z,7.73
2023-04-16T02:01:53.030Z,6.63
2023-04-16T02:04:25.093Z,7.47
2023-04-16T02:06:57.402Z,9.50
2023-04-16T02:09:29.372Z,8.97
2023-04-16T02:12:03.306Z,8.17
2023-04-16T02:14:35.352Z,7.27
2023-04-16T02:17:07.338Z,9.00
2023-04-16T02:19:39.320Z,8.77
2023-04-16T02:22:11.245Z,12.63
2023-04-16T02:24:43.143Z,7.73
2023-04-16T02:27:15.042Z,9.80
2023-04-16T02:29:46.984Z,9.33
2023-04-16T02:32:18.922Z,9.40
2023-04-16T02:34:51.149Z,8.17
2023-04-16T02:37:23.602Z,6.93
2023-04-16T02:39:56.049Z,11.27
2023-04-16T02:42:28.544Z,8.87
2023-04-16T02:45:00.510Z,8.07
2023-04-16T02:47:32.449Z,8.37
2023-04-16T02:50:04.897Z,8.23
2023-04-16T02:52:36.832Z,7.83
2023-04-16T02:55:10.456Z,6.97
2023-04-16T02:57:42.676Z,7.67
2023-04-16T03:00:14.993Z,8.93
2023-04-16T03:02:46.965Z,6.53
2023-04-16T03:05:19.246Z,7.23
2023-04-16T03:07:56.512Z,8.63
2023-04-16T03:10:28.554Z,7.03
2023-04-16T03:13:03.550Z,7.00
2023-04-16T03:15:35.845Z,7.83
2023-04-16T03:18:07.767Z,7.73
2023-04-16T03:20:39.693Z,7.90
2023-04-16T03:23:11.681Z,6.33
2023-04-16T03:25:46.713Z,5.73
2023-04-16T03:28:18.784Z,6.97
2023-04-16T03:30:52.918Z,7.60
2023-04-16T03:33:24.966Z,7.77
2023-04-16T03:35:58.758Z,7.13
2023-04-16T03:38:30.996Z,7.53
2023-04-16T03:41:02.950Z,7.93
2023-04-16T03:43:34.902Z,7.93
2023-04-16T03:46:06.927Z,7.13
2023-04-16T03:48:38.873Z,9.27
2023-04-16T03:51:11.094Z,8.13
2023-04-16T03:53:43.036Z,9.03
2023-04-16T03:56:14.961Z,8.87
2023-04-16T03:58:46.950Z,11.30
2023-04-16T04:01:18.923Z,10.73
2023-04-16T04:03:51.213Z,9.87
2023-04-16T04:06:23.392Z,8.63
2023-04-16T04:08:55.450Z,10.53
2023-04-16T04:11:27.351Z,10.90
2023-04-16T04:13:59.500Z,11.30
2023-04-16T04:16:32.846Z,12.03
2023-04-16T04:19:04.886Z,11.80
2023-04-16T04:21:36.767Z,11.77
2023-04-16T04:24:08.705Z,11.17
2023-04-16T04:26:40.937Z,11.23
2023-04-16T04:29:14.268Z,12.07
2023-04-16T04:31:46.242Z,11.40
2023-04-16T04:34:18.822Z,10.37
2023-04-16T04:36:51.118Z,11.53
2023-04-16T04:39:23.301Z,11.23
2023-04-16T04:41:55.367Z,10.30
2023-04-16T04:44:27.434Z,10.90
2023-04-16T04:46:59.375Z,11.82
2023-04-16T04:49:32.156Z,12.90
2023-04-16T04:52:04.206Z,11.50
2023-04-16T04:54:36.393Z,10.27
2023-04-16T04:57:08.948Z,10.97
2023-04-16T04:59:40.910Z,11.67
2023-04-16T05:02:13.297Z,11.67
2023-04-16T05:04:45.511Z,11.13
2023-04-16T05:07:17.427Z,12.23
2023-04-16T05:09:49.355Z,12.73
2023-04-16T05:12:21.459Z,11.40
2023-04-16T05:14:53.448Z,11.73
2023-04-16T05:17:25.363Z,11.60
2023-04-16T05:19:57.361Z,10.40
2023-04-16T05:22:29.296Z,12.30
2023-04-16T05:25:01.404Z,10.53
2023-04-16T05:27:33.428Z,9.27
2023-04-16T05:30:06.306Z,11.67
2023-04-16T05:32:41.395Z,12.20
2023-04-16T05:35:14.790Z,11.50
2023-04-16T05:37:48.724Z,11.93
2023-04-16T05:40:20.950Z,11.50
2023-04-16T05:42:52.963Z,12.63
2023-04-16T05:45:26.138Z,11.07
2023-04-16T05:47:59.882Z,12.43
2023-04-16T05:50:31.813Z,12.60
2023-04-16T05:53:07.374Z,12.67
2023-04-16T05:55:39.327Z,13.97
2023-04-16T05:58:11.272Z,12.27
2023-04-16T06:00:43.295Z,12.83
2023-04-16T06:03:15.553Z,11.63
2023-04-16T06:05:47.590Z,12.33
2023-04-16T06:08:19.980Z,13.07
2023-04-16T06:10:51.967Z,11.77
2023-04-16T06:13:23.872Z,13.77
2023-04-16T06:15:55.960Z,14.77
2023-04-16T06:18:28.031Z,13.10
2023-04-16T06:21:00.345Z,12.93
2023-04-16T06:23:32.306Z,12.20
2023-04-16T06:26:05.682Z,14.57
2023-04-16T06:28:37.667Z,13.80
2023-04-16T06:31:09.687Z,13.63
2023-04-16T06:33:41.712Z,15.67
2023-04-16T06:36:13.696Z,11.50
2023-04-16T06:38:45.740Z,13.50
2023-04-16T06:41:17.817Z,15.10
2023-04-16T06:43:49.749Z,12.20
2023-04-16T06:46:21.745Z,15.87
2023-04-16T06:48:53.750Z,14.83
2023-04-16T06:51:26.792Z,12.70
2023-04-16T06:53:58.732Z,16.23
2023-04-16T06:56:30.953Z,13.60
2023-04-16T06:59:03.700Z,15.67
2023-04-16T07:01:36.403Z,12.93
2023-04-16T07:04:08.540Z,15.43
2023-04-16T07:06:40.776Z,13.17
2023-04-16T07:09:12.751Z,16.87
2023-04-16T07:11:44.876Z,13.20
2023-04-16T07:14:17.239Z,17.37
2023-04-16T07:16:49.224Z,17.83
2023-04-16T07:19:21.299Z,13.87
2023-04-16T07:21:53.298Z,15.63
2023-04-16T07:24:25.363Z,16.50
2023-04-16T07:26:57.359Z,13.20
2023-04-16T07:29:29.369Z,17.80
2023-04-16T07:32:01.745Z,16.63
2023-04-16T07:34:33.722Z,16.20
2023-04-16T07:37:05.876Z,20.00
2023-04-16T07:39:39.058Z,17.70
2023-04-16T07:42:11.398Z,17.97
2023-04-16T07:44:43.942Z,16.97
2023-04-16T07:47:16.241Z,17.30
2023-04-16T07:49:48.178Z,20.93
2023-04-16T07:52:20.637Z,18.20
2023-04-16T07:54:52.678Z,19.63
2023-04-16T07:57:24.639Z,19.70
2023-04-16T07:59:56.580Z,19.80
2023-04-16T08:02:28.880Z,19.23
2023-04-16T08:05:01.002Z,21.93
2023-04-16T08:07:34.565Z,21.87
2023-04-16T08:10:07.903Z,20.37
2023-04-16T08:12:40.773Z,20.77
2023-04-16T08:15:12.733Z,20.57
2023-04-16T08:17:45.095Z,24.30
2023-04-16T08:20:19.087Z,23.33
2023-04-16T08:22:51.338Z,20.27
2023-04-16T08:25:24.725Z,23.13
2023-04-16T08:27:56.694Z,24.77
2023-04-16T08:30:28.867Z,22.60
2023-04-16T08:33:01.323Z,21.30
2023-04-16T08:35:33.898Z,22.47
2023-04-16T08:38:07.493Z,24.60
2023-04-16T08:40:41.952Z,20.97
2023-04-16T08:43:17.534Z,22.93
2023-04-16T08:45:49.670Z,25.30
2023-04-16T08:48:23.426Z,23.77
2023-04-16T08:50:56.208Z,26.30
2023-04-16T08:53:38.759Z,23.53
2023-04-16T08:56:13.002Z,25.50
2023-04-16T08:58:48.826Z,22.43
2023-04-16T09:01:22.229Z,22.23
2023-04-16T09:03:54.953Z,27.27
2023-04-16T09:06:28.557Z,21.97
2023-04-16T09:09:04.681Z,21.70
2023-04-16T09:11:38.968Z,23.13
2023-04-16T09:14:12.192Z,21.63
2023-04-16T09:16:49.384Z,21.47
2023-04-16T09:19:22.540Z,19.50
2023-04-16T09:21:54.556Z,24.73
2023-04-16T09:24:26.851Z,20.33
2023-04-16T09:27:00.559Z,20.53
2023-04-16T09:29:38.012Z,22.10
2023-04-16T09:32:12.125Z,22.60
2023-04-16T09:35:01.155Z,19.90
2023-04-16T09:37:33.220Z,19.90
2023-04-16T09:40:06.228Z,21.90
2023-04-16T09:42:38.355Z,20.43
2023-04-16T09:45:11.009Z,22.07
2023-04-16T09:47:46.349Z,18.00
2023-04-16T09:50:20.452Z,19.40
2023-04-16T09:52:52.500Z,23.73
2023-04-16T09:55:27.862Z,19.83
2023-04-16T09:58:01.667Z,21.30
2023-04-16T10:00:33.730Z,20.40
2023-04-16T10:03:07.243Z,23.77
2023-04-16T10:05:39.639Z,20.97
2023-04-16T10:08:13.696Z,23.37
2023-04-16T10:10:45.871Z,21.27
2023-04-16T10:13:19.339Z,21.67
2023-04-16T10:15:51.527Z,21.43
2023-04-16T10:18:24.045Z,22.47
2023-04-16T10:20:57.559Z,21.37
2023-04-16T10:23:30.161Z,21.77
2023-04-16T10:26:02.862Z,22.73
2023-04-16T10:28:35.770Z,23.57
2023-04-16T10:31:09.796Z,22.47
2023-04-16T10:33:44.279Z,21.37
2023-04-16T10:36:23.793Z,21.40
2023-04-16T10:39:00.875Z,20.63
2023-04-16T10:41:33.739Z,24.20
2023-04-16T10:44:10.016Z,18.80
2023-04-16T10:46:44.913Z,19.47
2023-04-16T10:49:23.533Z,19.87
2023-04-16T10:51:58.361Z,19.60
2023-04-16T10:54:32.117Z,20.37
2023-04-16T10:57:12.270Z,23.00
2023-04-16T10:59:45.414Z,21.03
2023-04-16T11:02:19.565Z,18.07
2023-04-16T11:04:51.936Z,22.80
2023-04-16T11:07:35.149Z,20.90
2023-04-16T11:10:13.470Z,20.77
2023-04-16T11:12:48.906Z,18.37
2023-04-16T11:15:21.931Z,23.73
2023-04-16T11:17:54.027Z,19.67
2023-04-16T11:20:28.436Z,20.43
2023-04-16T11:23:00.421Z,22.48
2023-04-16T11:25:34.328Z,19.90
2023-04-16T11:28:06.432Z,22.80
2023-04-16T11:30:40.128Z,20.30
2023-04-16T11:33:12.662Z,20.47
2023-04-16T11:35:46.097Z,20.97
2023-04-16T11:38:19.229Z,17.30
2023-04-16T11:40:54.072Z,18.50
2023-04-16T11:43:27.155Z,18.50
2023-04-16T11:46:10.286Z,17.17
2023-04-16T11:48:55.575Z,18.43
2023-04-16T11:51:27.537Z,15.73
2023-04-16T11:53:59.514Z,18.67
2023-04-16T11:56:36.319Z,18.47
2023-04-16T11:59:17.052Z,15.43
2023-04-16T12:01:52.864Z,14.60
2023-04-16T12:04:29.420Z,15.60
2023-04-16T12:07:14.775Z,15.50
2023-04-16T12:09:46.690Z,16.37
2023-04-16T12:12:32.535Z,15.13
2023-04-16T12:15:05.296Z,14.47
2023-04-16T12:17:38.894Z,14.77
2023-04-16T12:20:15.842Z,15.83
2023-04-16T12:22:49.854Z,13.40
2023-04-16T12:25:25.050Z,13.97
2023-04-16T12:27:58.104Z,14.40
2023-04-16T12:30:31.011Z,14.17
2023-04-16T12:33:19.864Z,16.13
2023-04-16T12:35:52.544Z,15.50
2023-04-16T12:38:25.708Z,14.93
2023-04-16T12:40:58.423Z,18.43
2023-04-16T12:43:30.446Z,15.80
2023-04-16T12:46:04.314Z,15.20
2023-04-16T12:48:36.716Z,14.97
2023-04-16T12:51:08.680Z,13.87
2023-04-16T12:53:40.744Z,14.97
2023-04-16T12:56:12.687Z,13.93
2023-04-16T12:58:44.667Z,14.37
2023-04-16T13:01:16.609Z,12.40
2023-04-16T13:03:49.688Z,13.07
2023-04-16T13:06:21.959Z,13.60
2023-04-16T13:08:54.003Z,11.80
2023-04-16T13:11:26.129Z,12.03
2023-04-16T13:13:58.285Z,12.27
2023-04-16T13:16:30.265Z,12.00
2023-04-16T13:19:02.158Z,12.03
2023-04-16T13:21:34.564Z,13.73
2023-04-16T13:24:07.010Z,15.07
2023-04-16T13:26:38.988Z,12.20
2023-04-16T13:29:11.709Z,10.83
2023-04-16T13:31:43.937Z,11.37
2023-04-16T13:34:15.982Z,12.83
2023-04-16T13:36:48.020Z,11.27
2023-04-16T13:39:20.080Z,11.87
2023-04-16T13:41:52.008Z,13.60
2023-04-16T13:44:23.922Z,10.97
2023-04-16T13:46:56.226Z,10.23
2023-04-16T13:49:28.333Z,10.27
2023-04-16T13:52:01.030Z,11.30
2023-04-16T13:54:33.804Z,12.10
2023-04-16T13:57:06.064Z,12.27
2023-04-16T13:59:38.296Z,11.33
2023-04-16T14:02:11.236Z,11.30
2023-04-16T14:04:43.207Z,10.40
2023-04-16T14:07:15.782Z,10.00
2023-04-16T14:09:47.736Z,10.10
2023-04-16T14:12:19.927Z,9.60
2023-04-16T14:14:51.940Z,9.87
2023-04-16T14:17:23.894Z,11.07
2023-04-16T14:19:56.359Z,12.57
2023-04-16T14:22:28.336Z,11.10
2023-04-16T14:25:01.115Z,13.63
2023-04-16T14:27:34.308Z,11.20
2023-04-16T14:30:07.407Z,11.20
2023-04-16T14:32:39.396Z,11.07
2023-04-16T14:35:11.368Z,16.13
2023-04-16T14:37:43.790Z,15.10
2023-04-16T14:40:16.087Z,13.23
2023-04-16T14:42:48.049Z,14.03
2023-04-16T14:45:20.363Z,13.40
2023-04-16T14:47:52.393Z,12.37
2023-04-16T14:50:24.395Z,14.73
2023-04-16T14:52:56.543Z,13.27
2023-04-16T14:55:28.545Z,15.10
2023-04-16T14:58:01.005Z,16.03
2023-04-16T15:00:35.634Z,12.47
2023-04-16T15:03:07.922Z,13.73
2023-04-16T15:05:39.928Z,14.60
2023-04-16T15:08:12.235Z,12.13
2023-04-16T15:10:45.806Z,13.00
2023-04-16T15:13:18.002Z,11.80
2023-04-16T15:15:50.525Z,15.63
2023-04-16T15:18:22.691Z,14.83
2023-04-16T15:20:55.570Z,14.27
2023-04-16T15:23:27.746Z,12.27
2023-04-16T15:25:59.730Z,12.53
2023-04-16T15:28:31.849Z,13.57
2023-04-16T15:31:03.836Z,13.60
2023-04-16T15:33:35.932Z,14.23
2023-04-16T15:36:07.886Z,14.00
2023-04-16T15:38:39.921Z,14.83
2023-04-16T15:41:11.971Z,14.80
2023-04-16T15:43:43.925Z,14.87
2023-04-16T15:46:16.361Z,15.20
2023-04-16T15:48:48.420Z,15.53
2023-04-16T15:51:20.553Z,14.10
2023-04-16T15:53:53.508Z,17.37
2023-04-16T15:56:25.912Z,17.17
2023-04-16T15:58:57.919Z,15.03
2023-04-16T16:01:29.894Z,14.10
2023-04-16T16:04:01.993Z,14.00
2023-04-16T16:06:34.403Z,15.33
2023-04-16T16:09:06.454Z,14.77
2023-04-16T16:11:38.442Z,16.30
2023-04-16T16:14:10.905Z,16.17
2023-04-16T16:16:42.891Z,17.53
2023-04-16T16:19:15.195Z,16.67
2023-04-16T16:21:47.120Z,15.17
2023-04-16T16:24:19.563Z,15.50
2023-04-16T16:26:51.527Z,18.83
2023-04-16T16:29:25.457Z,15.43
2023-04-16T16:31:57.994Z,14.83
2023-04-16T16:34:37.192Z,16.30
2023-04-16T16:37:09.265Z,16.60
2023-04-16T16:39:41.441Z,14.80
2023-04-16T16:42:14.190Z,16.57
2023-04-16T16:44:49.676Z,16.87
2023-04-16T16:47:22.161Z,18.10
2023-04-16T16:49:54.868Z,15.20
2023-04-16T16:52:27.170Z,15.23
2023-04-16T16:54:59.230Z,16.83
2023-04-16T16:57:31.212Z,18.37
2023-04-16T17:00:08.163Z,16.17
2023-04-16T17:02:41.073Z,17.77
2023-04-16T17:05:13.606Z,15.80
2023-04-16T17:07:45.921Z,16.67
2023-04-16T17:10:21.522Z,15.70
2023-04-16T17:12:53.536Z,16.13
2023-04-16T17:15:25.733Z,15.20
2023-04-16T17:17:57.754Z,15.97
2023-04-16T17:20:29.957Z,15.83
2023-04-16T17:23:01.884Z,15.23
2023-04-16T17:25:34.227Z,15.23
2023-04-16T17:28:06.147Z,16.00
2023-04-16T17:30:38.199Z,15.90
2023-04-16T17:33:10.358Z,16.67
2023-04-16T17:35:42.310Z,19.37
2023-04-16T17:38:14.375Z,17.27
2023-04-16T17:40:46.370Z,17.03
2023-04-16T17:43:18.295Z,15.80
2023-04-16T17:45:50.609Z,15.90
2023-04-16T17:48:22.566Z,15.60
2023-04-16T17:50:54.617Z,16.13
2023-04-16T17:53:26.717Z,16.23
2023-04-16T17:55:58.638Z,16.27
2023-04-16T17:58:35.163Z,15.73
2023-04-16T18:01:07.336Z,16.77
2023-04-16T18:03:40.235Z,16.10
2023-04-16T18:06:12.408Z,17.07
2023-04-16T18:08:44.355Z,16.93
2023-04-16T18:11:16.287Z,17.07
2023-04-16T18:13:48.681Z,17.40
2023-04-16T18:16:20.759Z,17.27
2023-04-16T18:18:52.756Z,16.53
2023-04-16T18:21:24.843Z,18.97
2023-04-16T18:23:56.873Z,17.90
2023-04-16T18:26:29.997Z,16.13
2023-04-16T18:29:02.295Z,18.57
2023-04-16T18:31:35.013Z,17.83
2023-04-16T18:34:07.264Z,15.93
2023-04-16T18:36:39.204Z,15.70
2023-04-16T18:39:11.198Z,18.38
2023-04-16T18:41:44.592Z,19.50
2023-04-16T18:44:17.402Z,17.00
2023-04-16T18:46:49.520Z,16.83
2023-04-16T18:49:21.754Z,16.00
2023-04-16T18:51:55.915Z,16.27
2023-04-16T18:54:28.009Z,17.67
2023-04-16T18:57:00.871Z,15.57
2023-04-16T18:59:33.157Z,16.73
2023-04-16T19:02:05.330Z,16.43
2023-04-16T19:04:38.237Z,20.60
2023-04-16T19:07:10.325Z,18.50
2023-04-16T19:09:42.293Z,16.30
2023-04-16T19:12:14.219Z,16.60
2023-04-16T19:14:46.135Z,18.00
2023-04-16T19:17:18.163Z,16.40
2023-04-16T19:19:50.195Z,17.33
2023-04-16T19:22:22.144Z,16.43
2023-04-16T19:24:54.761Z,19.77
2023-04-16T19:27:29.485Z,19.10
2023-04-16T19:30:01.388Z,16.27
2023-04-16T19:32:33.827Z,17.37
2023-04-16T19:35:06.552Z,15.97
2023-04-16T19:37:38.526Z,18.17
2023-04-16T19:40:11.202Z,15.30
2023-04-16T19:42:45.260Z,16.53
2023-04-16T19:45:18.387Z,15.47
2023-04-16T19:47:51.272Z,18.37
2023-04-16T19:50:23.945Z,16.60
2023-04-16T19:52:56.095Z,16.50
2023-04-16T19:55:28.064Z,15.20
2023-04-16T19:58:05.811Z,15.87
2023-04-16T20:00:42.568Z,15.27
2023-04-16T20:03:14.649Z,16.60
2023-04-16T20:05:49.904Z,16.43
2023-04-16T20:08:21.817Z,15.20
2023-04-16T20:10:54.540Z,18.50
2023-04-16T20:13:26.476Z,16.93
2023-04-16T20:15:58.426Z,16.33
2023-04-16T20:18:30.448Z,17.00
2023-04-16T20:21:06.042Z,18.00
2023-04-16T20:23:37.987Z,16.43
2023-04-16T20:26:09.956Z,17.40
2023-04-16T20:28:41.841Z,18.33
2023-04-16T20:31:13.759Z,17.47
2023-04-16T20:33:45.820Z,18.10
2023-04-16T20:36:17.872Z,17.13
2023-04-16T20:38:51.470Z,17.17
2023-04-16T20:41:25.149Z,18.27
2023-04-16T20:43:57.274Z,17.10
2023-04-16T20:46:30.094Z,17.07
2023-04-16T20:49:02.415Z,18.20
2023-04-16T20:51:34.293Z,17.27
2023-04-16T20:54:08.641Z,17.93
2023-04-16T20:56:40.846Z,18.90
2023-04-16T20:59:13.466Z,19.30
2023-04-16T21:01:45.793Z,18.13
2023-04-16T21:04:18.378Z,17.53
2023-04-16T21:06:53.517Z,19.20
2023-04-16T21:09:25.494Z,23.33
2023-04-16T21:11:57.471Z,19.97
2023-04-16T21:14:29.417Z,18.93
2023-04-16T21:17:01.344Z,17.53
2023-04-16T21:19:33.308Z,17.97
2023-04-16T21:22:05.354Z,18.90
2023-04-16T21:24:37.426Z,19.17
2023-04-16T21:27:09.404Z,18.17
2023-04-16T21:29:41.369Z,18.80
2023-04-16T21:32:13.437Z,18.23
2023-04-16T21:34:45.803Z,19.57
2023-04-16T21:37:17.728Z,19.03
2023-04-16T21:39:49.691Z,18.30
2023-04-16T21:42:21.635Z,19.70
2023-04-16T21:44:53.652Z,19.20
2023-04-16T21:47:25.948Z,19.63
2023-04-16T21:49:58.128Z,19.20
2023-04-16T21:52:30.114Z,21.60
2023-04-16T21:55:02.189Z,19.70
2023-04-16T21:57:34.218Z,19.70
2023-04-16T22:00:14.186Z,21.27
2023-04-16T22:02:46.794Z,19.83
2023-04-16T22:05:20.000Z,19.67
2023-04-16T22:07:52.793Z,20.97
2023-04-16T22:10:24.756Z,21.47
2023-04-16T22:12:56.738Z,20.37
2023-04-16T22:15:29.692Z,22.70
2023-04-16T22:18:01.952Z,20.83
2023-04-16T22:20:39.226Z,20.97
2023-04-16T22:23:11.803Z,20.87
2023-04-16T22:25:43.904Z,21.83
2023-04-16T22:28:15.947Z,21.40
2023-04-16T22:30:47.886Z,20.83
2023-04-16T22:33:20.329Z,22.80
2023-04-16T22:35:52.313Z,21.47
2023-04-16T22:38:24.194Z,24.43
2023-04-16T22:40:56.316Z,21.90
2023-04-16T22:43:28.245Z,22.73
2023-04-16T22:46:04.924Z,21.60
2023-04-16T22:48:38.742Z,26.10
2023-04-16T22:51:10.687Z,26.10
2023-04-16T22:53:42.644Z,26.60
2023-04-16T22:56:14.615Z,24.23
2023-04-16T22:58:46.606Z,25.70
2023-04-16T23:01:18.641Z,24.67
2023-04-16T23:03:50.660Z,24.20
2023-04-16T23:06:22.718Z,24.87
2023-04-16T23:08:54.680Z,23.53
2023-04-16T23:11:26.602Z,22.97
2023-04-16T23:13:58.797Z,21.80
2023-04-16T23:16:30.880Z,22.93
2023-04-16T23:19:02.805Z,22.83
2023-04-16T23:21:34.862Z,22.10
2023-04-16T23:24:07.250Z,21.70
2023-04-16T23:26:39.208Z,21.13
2023-04-16T23:29:11.404Z,20.87
2023-04-16T23:31:43.553Z,21.63
2023-04-16T23:34:15.617Z,21.10
2023-04-16T23:36:47.648Z,22.03
2023-04-16T23:39:19.662Z,21.80
2023-04-16T23:41:51.622Z,23.90
2023-04-16T23:44:23.566Z,23.03
2023-04-16T23:46:55.722Z,23.40
2023-04-16T23:49:27.810Z,22.53
2023-04-16T23:51:59.754Z,24.33
2023-04-16T23:54:31.791Z,21.43
2023-04-16T23:57:03.787Z,22.53
2023-04-16T23:59:35.740Z,21.87
